createdAt,value
2023-03-15T00:02:10.777Z,1.58
2023-03-15T00:05:15.504Z,1.98
2023-03-15T00:08:17.079Z,0.95
2023-03-15T00:11:18.854Z,0.77
2023-03-15T00:14:20.669Z,1.75
2023-03-15T00:17:22.754Z,0.90
2023-03-15T00:20:24.045Z,2.13
2023-03-15T00:23:25.414Z,2.10
2023-03-15T00:26:26.862Z,1.17
2023-03-15T00:29:28.140Z,2.50
2023-03-15T00:32:29.417Z,1.10
2023-03-15T00:35:30.726Z,2.05
2023-03-15T00:38:33.744Z,2.42
2023-03-15T00:41:35.272Z,1.92
2023-03-15T00:44:36.578Z,1.83
2023-03-15T00:47:37.852Z,2.03
2023-03-15T00:50:39.213Z,2.03
2023-03-15T00:53:42.207Z,1.67
2023-03-15T00:56:43.586Z,1.88
2023-03-15T00:59:45.187Z,1.83
2023-03-15T01:02:46.966Z,1.60
2023-03-15T01:05:48.272Z,1.55
2023-03-15T01:08:49.710Z,0.75
2023-03-15T01:11:51.188Z,1.92
2023-03-15T01:14:52.526Z,1.85
2023-03-15T01:17:53.789Z,0.98
2023-03-15T01:20:55.092Z,0.88
2023-03-15T01:23:56.418Z,1.70
2023-03-15T01:26:57.703Z,2.47
2023-03-15T01:29:58.968Z,1.60
2023-03-15T01:33:00.323Z,2.75
2023-03-15T01:36:03.131Z,1.98
2023-03-15T01:39:04.490Z,1.77
2023-03-15T01:42:06.004Z,0.90
2023-03-15T01:45:25.831Z,1.77
2023-03-15T01:48:29.364Z,2.10
2023-03-15T01:51:34.409Z,1.83
2023-03-15T01:54:45.971Z,1.67
2023-03-15T01:57:51.401Z,2.17
2023-03-15T02:00:53.206Z,1.48
2023-03-15T02:03:58.052Z,1.73
2023-03-15T02:07:01.361Z,1.30
2023-03-15T02:10:08.289Z,1.25
2023-03-15T02:13:10.910Z,1.50
2023-03-15T02:16:12.263Z,2.00
2023-03-15T02:19:20.403Z,0.95
2023-03-15T02:22:21.649Z,1.90
2023-03-15T02:25:41.596Z,2.25
2023-03-15T02:28:43.573Z,1.70
2023-03-15T02:31:45.068Z,1.63
2023-03-15T02:34:46.410Z,2.20
2023-03-15T02:37:48.759Z,1.90
2023-03-15T02:40:51.521Z,2.00
2023-03-15T02:43:54.348Z,3.20
2023-03-15T02:46:57.378Z,2.15
2023-03-15T02:49:58.655Z,2.03
2023-03-15T02:52:59.968Z,1.90
2023-03-15T02:56:01.265Z,1.75
2023-03-15T02:59:02.515Z,1.25
2023-03-15T03:02:04.523Z,2.00
2023-03-15T03:05:06.006Z,1.48
2023-03-15T03:08:07.294Z,1.67
2023-03-15T03:11:08.539Z,0.88
2023-03-15T03:14:09.832Z,1.00
2023-03-15T03:17:11.113Z,1.73
2023-03-15T03:20:13.624Z,2.38
2023-03-15T03:23:14.888Z,1.92
2023-03-15T03:26:17.582Z,2.13
2023-03-15T03:29:18.864Z,1.90
2023-03-15T03:32:20.261Z,2.13
2023-03-15T03:35:21.740Z,1.38
2023-03-15T03:38:23.009Z,2.75
2023-03-15T03:41:24.463Z,1.90
2023-03-15T03:44:25.777Z,1.83
2023-03-15T03:47:27.127Z,2.13
2023-03-15T03:50:28.531Z,1.60
2023-03-15T03:53:29.900Z,1.70
2023-03-15T03:56:31.193Z,1.75
2023-03-15T03:59:32.476Z,1.60
2023-03-15T04:02:34.035Z,1.27
2023-03-15T04:05:35.359Z,2.13
2023-03-15T04:08:36.686Z,2.33
2023-03-15T04:11:39.263Z,2.40
2023-03-15T04:14:40.531Z,2.20
2023-03-15T04:17:41.803Z,1.67
2023-03-15T04:20:49.334Z,2.28
2023-03-15T04:23:50.724Z,1.63
2023-03-15T04:26:57.699Z,1.70
2023-03-15T04:29:59.008Z,2.50
2023-03-15T04:33:00.410Z,2.42
2023-03-15T04:36:02.832Z,2.03
2023-03-15T04:39:05.368Z,2.42
2023-03-15T04:42:06.783Z,2.00
2023-03-15T04:45:08.295Z,2.10
2023-03-15T04:48:09.723Z,1.38
2023-03-15T04:51:10.979Z,1.95
2023-03-15T04:54:12.284Z,2.28
2023-03-15T04:57:13.592Z,2.15
2023-03-15T05:00:15.009Z,2.67
2023-03-15T05:03:16.350Z,2.28
2023-03-15T05:06:17.676Z,2.17
2023-03-15T05:09:19.236Z,1.25
2023-03-15T05:12:20.592Z,1.70
2023-03-15T05:15:21.913Z,2.20
2023-03-15T05:18:23.446Z,3.30
2023-03-15T05:21:24.687Z,2.65
2023-03-15T05:24:25.931Z,1.90
2023-03-15T05:27:28.321Z,2.22
2023-03-15T05:30:29.613Z,2.80
2023-03-15T05:33:31.580Z,1.52
2023-03-15T05:36:33.483Z,2.22
2023-03-15T05:39:34.797Z,2.78
2023-03-15T05:42:36.225Z,1.98
2023-03-15T05:45:37.845Z,2.05
2023-03-15T05:48:39.185Z,2.40
2023-03-15T05:51:40.555Z,1.77
2023-03-15T05:54:41.877Z,2.20
2023-03-15T05:57:43.272Z,2.75
2023-03-15T06:00:44.584Z,2.42
2023-03-15T06:03:45.980Z,3.88
2023-03-15T06:06:47.310Z,2.40
2023-03-15T06:09:48.594Z,2.67
2023-03-15T06:12:50.373Z,1.30
2023-03-15T06:15:51.692Z,1.38
2023-03-15T06:18:53.083Z,2.92
2023-03-15T06:21:54.369Z,2.85
2023-03-15T06:24:55.684Z,1.73
2023-03-15T06:27:56.982Z,1.55
2023-03-15T06:30:58.363Z,2.67
2023-03-15T06:33:59.687Z,1.85
2023-03-15T06:37:01.076Z,1.70
2023-03-15T06:40:07.731Z,2.50
2023-03-15T06:43:09.030Z,3.08
2023-03-15T06:46:10.413Z,2.85
2023-03-15T06:49:11.725Z,1.35
2023-03-15T06:52:13.099Z,1.92
2023-03-15T06:55:18.079Z,4.20
2023-03-15T07:01:20.787Z,1.58
2023-03-15T07:04:22.234Z,1.90
2023-03-15T07:07:23.493Z,1.33
2023-03-15T07:10:25.178Z,3.28
2023-03-15T07:13:26.462Z,1.05
2023-03-15T07:16:27.794Z,2.33
2023-03-15T07:19:29.098Z,2.35
2023-03-15T07:22:30.634Z,1.52
2023-03-15T07:25:33.266Z,1.80
2023-03-15T07:28:34.716Z,2.42
2023-03-15T07:31:35.982Z,2.72
2023-03-15T07:34:37.227Z,2.08
2023-03-15T07:37:39.668Z,2.20
2023-03-15T07:40:44.479Z,2.33
2023-03-15T07:43:45.774Z,1.25
2023-03-15T07:46:47.131Z,2.90
2023-03-15T07:49:48.406Z,3.08
2023-03-15T07:52:49.632Z,2.78
2023-03-15T07:55:50.968Z,2.30
2023-03-15T07:58:52.571Z,2.25
2023-03-15T08:01:53.956Z,3.10
2023-03-15T08:04:55.274Z,2.03
2023-03-15T08:07:56.886Z,3.42
2023-03-15T08:10:59.429Z,2.17
2023-03-15T08:14:00.715Z,2.45
2023-03-15T08:17:01.994Z,2.42
2023-03-15T08:20:03.623Z,3.28
2023-03-15T08:23:06.333Z,3.25
2023-03-15T08:26:07.650Z,2.50
2023-03-15T08:29:09.110Z,3.40
2023-03-15T08:32:10.562Z,2.05
2023-03-15T08:35:15.199Z,3.03
2023-03-15T08:38:17.109Z,2.47
2023-03-15T08:41:18.584Z,2.22
2023-03-15T08:44:19.886Z,4.03
2023-03-15T08:47:21.132Z,2.65
2023-03-15T08:50:22.903Z,2.45
2023-03-15T08:53:24.188Z,2.72
2023-03-15T08:56:25.454Z,2.75
2023-03-15T08:59:31.683Z,4.43
2023-03-15T09:02:33.993Z,3.00
2023-03-15T09:05:36.271Z,2.92
2023-03-15T09:08:37.562Z,2.75
2023-03-15T09:11:38.854Z,2.30
2023-03-15T09:14:40.130Z,3.35
2023-03-15T09:17:41.892Z,2.60
2023-03-15T09:20:43.512Z,3.60
2023-03-15T09:23:44.802Z,2.55
2023-03-15T09:26:46.058Z,2.60
2023-03-15T09:29:47.354Z,2.10
2023-03-15T09:32:49.038Z,3.90
2023-03-15T09:35:50.830Z,2.78
2023-03-15T09:38:52.140Z,3.90
2023-03-15T09:41:55.024Z,2.50
2023-03-15T09:45:04.148Z,2.08
2023-03-15T09:48:11.492Z,2.17
2023-03-15T09:51:21.841Z,3.03
2023-03-15T09:54:24.793Z,2.72
2023-03-15T09:57:35.601Z,2.15
2023-03-15T10:01:09.162Z,2.05
2023-03-15T10:04:22.409Z,3.53
2023-03-15T10:07:23.741Z,3.28
2023-03-15T10:10:31.393Z,2.72
2023-03-15T10:13:38.795Z,2.17
2023-03-15T10:16:41.788Z,2.33
2023-03-15T10:19:50.934Z,2.45
2023-03-15T10:22:56.092Z,3.60
2023-03-15T10:25:57.430Z,2.75
2023-03-15T10:28:59.475Z,1.92
2023-03-15T10:32:00.872Z,2.25
2023-03-15T10:35:02.198Z,3.15
2023-03-15T10:38:03.547Z,1.90
2023-03-15T10:41:06.149Z,1.90
2023-03-15T10:44:11.534Z,1.60
2023-03-15T10:47:23.045Z,1.63
2023-03-15T10:50:30.933Z,2.10
2023-03-15T10:53:33.553Z,3.05
2023-03-15T10:56:37.327Z,2.15
2023-03-15T10:59:53.135Z,3.40
2023-03-15T11:03:05.763Z,2.35
2023-03-15T11:06:21.273Z,2.35
2023-03-15T11:09:23.521Z,2.17
2023-03-15T11:12:25.963Z,2.03
2023-03-15T11:15:27.361Z,2.13
2023-03-15T11:18:31.864Z,2.50
2023-03-15T11:21:35.145Z,2.00
2023-03-15T11:24:36.460Z,2.28
2023-03-15T11:27:37.836Z,3.10
2023-03-15T11:30:40.607Z,3.05
2023-03-15T11:33:59.479Z,3.75
2023-03-15T11:37:08.368Z,2.88
2023-03-15T11:40:18.633Z,2.65
2023-03-15T11:43:25.698Z,2.28
2023-03-15T11:46:29.294Z,2.92
2023-03-15T11:49:30.799Z,2.35
2023-03-15T11:52:32.131Z,2.45
2023-03-15T11:55:33.530Z,2.00
2023-03-15T11:58:36.048Z,2.85
2023-03-15T12:01:37.491Z,3.17
2023-03-15T12:04:38.894Z,2.15
2023-03-15T12:07:56.708Z,3.47
2023-03-15T12:10:58.219Z,2.38
2023-03-15T12:13:59.500Z,2.50
2023-03-15T12:17:19.493Z,2.67
2023-03-15T12:20:44.084Z,3.42
2023-03-15T12:23:48.502Z,2.25
2023-03-15T12:26:51.282Z,2.38
2023-03-15T12:29:58.795Z,1.98
2023-03-15T12:33:02.117Z,3.40
2023-03-15T12:36:23.802Z,2.50
2023-03-15T12:39:36.926Z,2.10
2023-03-15T12:42:38.914Z,2.28
2023-03-15T12:45:41.278Z,2.17
2023-03-15T12:49:02.473Z,2.08
2023-03-15T12:52:04.330Z,2.83
2023-03-15T12:55:16.089Z,2.85
2023-03-15T12:58:18.988Z,2.70
2023-03-15T13:01:25.540Z,3.38
2023-03-15T13:04:28.224Z,2.50
2023-03-15T13:07:50.802Z,2.85
2023-03-15T13:11:00.233Z,2.65
2023-03-15T13:14:04.557Z,2.67
2023-03-15T13:17:07.340Z,2.72
2023-03-15T13:20:13.723Z,2.80
2023-03-15T13:23:15.417Z,2.60
2023-03-15T13:26:24.471Z,2.45
2023-03-15T13:29:32.910Z,2.35
2023-03-15T13:32:34.290Z,2.50
2023-03-15T13:35:55.058Z,2.42
2023-03-15T13:38:57.383Z,2.25
2023-03-15T13:42:01.872Z,3.00
2023-03-15T13:45:07.112Z,3.20
2023-03-15T13:48:08.718Z,2.25
2023-03-15T13:51:19.019Z,3.33
2023-03-15T13:54:23.054Z,2.60
2023-03-15T13:57:24.328Z,3.70
2023-03-15T14:00:26.898Z,2.13
2023-03-15T14:03:28.578Z,1.90
2023-03-15T14:06:29.994Z,3.05
2023-03-15T14:09:31.375Z,2.10
2023-03-15T14:12:32.825Z,2.50
2023-03-15T14:15:34.163Z,2.25
2023-03-15T14:18:39.611Z,2.40
2023-03-15T14:21:43.353Z,2.22
2023-03-15T14:24:47.338Z,2.63
2023-03-15T14:27:49.043Z,2.15
2023-03-15T14:30:54.803Z,2.38
2023-03-15T14:34:00.702Z,1.90
2023-03-15T14:37:05.305Z,2.40
2023-03-15T14:40:15.001Z,1.88
2023-03-15T14:43:16.546Z,1.70
2023-03-15T14:46:18.067Z,1.73
2023-03-15T14:49:23.047Z,1.77
2023-03-15T14:52:25.570Z,1.48
2023-03-15T14:55:30.946Z,1.40
2023-03-15T14:58:32.585Z,1.08
2023-03-15T15:01:34.673Z,1.40
2023-03-15T15:04:37.531Z,1.13
2023-03-15T15:07:38.794Z,1.20
2023-03-15T15:10:44.156Z,1.10
2023-03-15T15:13:45.494Z,1.10
2023-03-15T15:16:46.855Z,0.95
2023-03-15T15:19:48.464Z,1.23
2023-03-15T15:22:49.848Z,1.70
2023-03-15T15:25:53.062Z,2.30
2023-03-15T15:28:54.483Z,1.30
2023-03-15T15:31:55.840Z,1.13
2023-03-15T15:34:57.161Z,0.90
2023-03-15T15:37:58.524Z,0.75
2023-03-15T15:40:59.855Z,1.00
2023-03-15T15:44:01.151Z,1.10
2023-03-15T15:47:02.421Z,0.70
2023-03-15T15:50:04.135Z,1.00
2023-03-15T15:53:06.487Z,1.65
2023-03-15T15:56:11.860Z,1.50
2023-03-15T15:59:14.828Z,1.02
2023-03-15T16:02:22.105Z,0.93
2023-03-15T16:05:25.776Z,1.00
2023-03-15T16:08:27.178Z,1.20
2023-03-15T16:11:29.155Z,1.58
2023-03-15T16:14:30.497Z,1.15
2023-03-15T16:17:31.753Z,1.13
2023-03-15T16:20:33.032Z,1.00
2023-03-15T16:23:34.335Z,1.50
2023-03-15T16:26:37.703Z,1.05
2023-03-15T16:29:40.935Z,1.10
2023-03-15T16:32:44.764Z,1.17
2023-03-15T16:35:48.559Z,1.23
2023-03-15T16:38:49.986Z,1.15
2023-03-15T16:41:55.364Z,1.00
2023-03-15T16:44:56.739Z,1.23
2023-03-15T16:47:58.032Z,1.30
2023-03-15T16:50:59.306Z,1.35
2023-03-15T16:54:12.826Z,1.25
2023-03-15T16:57:23.219Z,1.23
2023-03-15T17:00:25.828Z,1.30
2023-03-15T17:03:29.573Z,1.50
2023-03-15T17:06:31.609Z,1.60
2023-03-15T17:09:33.084Z,1.67
2023-03-15T17:12:35.615Z,2.08
2023-03-15T17:15:37.097Z,1.23
2023-03-15T17:18:39.003Z,4.10
2023-03-15T17:21:41.388Z,2.00
2023-03-15T17:24:42.831Z,1.38
2023-03-15T17:27:44.901Z,1.15
2023-03-15T17:30:46.462Z,1.25
2023-03-15T17:33:47.985Z,2.72
2023-03-15T17:36:49.299Z,1.83
2023-03-15T17:39:50.581Z,2.60
2023-03-15T17:42:53.163Z,3.20
2023-03-15T17:45:54.535Z,3.05
2023-03-15T17:48:57.006Z,3.55
2023-03-15T17:51:58.281Z,3.30
2023-03-15T17:54:59.688Z,1.80
2023-03-15T17:58:01.955Z,2.40
2023-03-15T18:01:04.502Z,2.20
2023-03-15T18:04:08.944Z,2.80
2023-03-15T18:07:10.490Z,2.08
2023-03-15T18:10:13.193Z,2.22
2023-03-15T18:13:17.551Z,3.28
2023-03-15T18:16:19.189Z,3.50
2023-03-15T18:19:20.538Z,4.88
2023-03-15T18:22:21.867Z,4.50
2023-03-15T18:25:24.912Z,4.38
2023-03-15T18:28:26.231Z,2.83
2023-03-15T18:31:27.591Z,3.50
2023-03-15T18:34:28.901Z,4.38
2023-03-15T18:37:30.202Z,3.75
2023-03-15T18:40:32.092Z,2.75
2023-03-15T18:43:33.560Z,4.05
2023-03-15T18:46:35.029Z,3.15
2023-03-15T18:49:36.330Z,3.55
2023-03-15T18:52:37.778Z,2.80
2023-03-15T18:55:39.107Z,1.85
2023-03-15T18:58:40.998Z,2.85
2023-03-15T19:01:42.994Z,4.47
2023-03-15T19:04:44.562Z,1.95
2023-03-15T19:07:47.715Z,1.63
2023-03-15T19:10:49.213Z,2.67
2023-03-15T19:13:53.170Z,4.00
2023-03-15T19:16:55.082Z,2.33
2023-03-15T19:19:56.419Z,4.13
2023-03-15T19:22:57.721Z,3.38
2023-03-15T19:25:58.995Z,4.30
2023-03-15T19:29:02.751Z,4.18
2023-03-15T19:32:04.238Z,3.88
2023-03-15T19:35:06.104Z,4.30
2023-03-15T19:38:07.391Z,4.72
2023-03-15T19:41:11.972Z,4.43
2023-03-15T19:47:15.075Z,3.15
2023-03-15T19:50:16.460Z,4.97
2023-03-15T19:53:18.349Z,2.63
2023-03-15T19:56:19.611Z,3.63
2023-03-15T19:59:20.885Z,2.95
2023-03-15T20:02:22.566Z,2.50
2023-03-15T20:05:25.535Z,3.75
2023-03-15T20:08:26.887Z,2.90
2023-03-15T20:11:29.339Z,3.42
2023-03-15T20:14:30.752Z,3.60
2023-03-15T20:17:32.156Z,3.00
2023-03-15T20:20:33.729Z,2.22
2023-03-15T20:23:35.820Z,4.30
2023-03-15T20:26:37.126Z,3.83
2023-03-15T20:29:38.450Z,4.43
2023-03-15T20:32:39.970Z,4.22
2023-03-15T20:35:41.453Z,3.38
2023-03-15T20:38:43.096Z,6.45
2023-03-15T20:41:44.436Z,4.75
2023-03-15T20:44:45.772Z,3.47
2023-03-15T20:47:47.439Z,4.28
2023-03-15T20:50:48.791Z,4.10
2023-03-15T20:53:50.085Z,3.42
2023-03-15T20:56:51.749Z,3.38
2023-03-15T20:59:53.698Z,5.65
2023-03-15T21:02:55.061Z,4.50
2023-03-15T21:05:56.410Z,4.53
2023-03-15T21:08:57.716Z,4.20
2023-03-15T21:11:59.392Z,5.28
2023-03-15T21:15:01.635Z,7.05
2023-03-15T21:18:02.904Z,4.13
2023-03-15T21:21:07.663Z,2.03
2023-03-15T21:24:09.718Z,3.13
2023-03-15T21:27:12.222Z,2.88
2023-03-15T21:30:13.954Z,2.58
2023-03-15T21:33:15.301Z,2.10
2023-03-15T21:36:17.591Z,2.55
2023-03-15T21:39:18.903Z,3.63
2023-03-15T21:42:20.365Z,2.97
2023-03-15T21:45:23.132Z,5.10
2023-03-15T21:48:24.582Z,3.10
2023-03-15T21:51:25.840Z,4.55
2023-03-15T21:54:27.155Z,3.22
2023-03-15T21:57:28.437Z,4.78
2023-03-15T22:00:29.861Z,3.45
2023-03-15T22:03:31.721Z,3.55
2023-03-15T22:06:33.008Z,2.63
2023-03-15T22:09:34.325Z,3.30
2023-03-15T22:12:36.288Z,2.20
2023-03-15T22:15:37.595Z,2.80
2023-03-15T22:18:38.915Z,3.60
2023-03-15T22:21:40.229Z,3.45
2023-03-15T22:24:41.764Z,4.55
2023-03-15T22:27:43.205Z,3.05
2023-03-15T22:30:46.369Z,2.47
2023-03-15T22:33:47.680Z,2.53
2023-03-15T22:36:48.978Z,3.88
2023-03-15T22:39:50.790Z,3.47
2023-03-15T22:42:52.777Z,3.25
2023-03-15T22:45:54.125Z,2.38
2023-03-15T22:48:55.524Z,3.05
2023-03-15T22:51:56.808Z,3.33
2023-03-15T22:54:58.181Z,2.90
2023-03-15T22:57:59.414Z,3.38
2023-03-15T23:01:01.403Z,2.05
2023-03-15T23:04:03.503Z,2.78
2023-03-15T23:07:04.930Z,3.30
2023-03-15T23:10:06.954Z,3.30
2023-03-15T23:13:08.411Z,3.10
2023-03-15T23:16:09.890Z,2.63
2023-03-15T23:19:11.321Z,3.10
2023-03-15T23:22:12.598Z,3.67
2023-03-15T23:25:14.947Z,4.28
2023-03-15T23:28:17.756Z,3.33
2023-03-15T23:31:19.096Z,4.22
2023-03-15T23:34:22.597Z,3.08
2023-03-15T23:37:24.412Z,3.15
2023-03-15T23:40:26.860Z,3.05
2023-03-15T23:43:28.479Z,3.65
2023-03-15T23:46:29.776Z,3.70
2023-03-15T23:49:32.714Z,4.15
2023-03-15T23:52:34.467Z,3.30
2023-03-15T23:55:35.808Z,3.28
2023-03-15T23:58:37.419Z,3.33
